Time;durP1;ratioP1;P1;durP2;ratioP2;P2;SDS_P1;SDS_P2;PMS_P1;PMS_P2;Temp;Humidity;BMP_temperature;BMP_pressure;BME280_temperature;BME280_humidity;BME280_pressure;Samples;Min_cycle;Max_cycle;Signal;HPM_P1;HPM_P2
2022/03/05 00:00:06;;;;;;;1.30;1.20;;;20.30;38.70;;;;;;5082571;28;44062;-63
2022/03/05 00:02:40;;;;;;;1.42;1.15;;;20.30;38.80;;;;;;5082277;28;43426;-64
2022/03/05 00:05:08;;;;;;;1.10;1.00;;;20.30;38.80;;;;;;5083276;28;43487;-64
2022/03/05 00:07:35;;;;;;;1.77;1.13;;;20.30;38.80;;;;;;5066266;28;43508;-63
2022/03/05 00:10:03;;;;;;;1.40;1.30;;;20.30;38.90;;;;;;5083435;28;44187;-63
2022/03/05 00:12:31;;;;;;;1.27;1.20;;;20.20;38.70;;;;;;5084309;27;43444;-64
2022/03/05 00:14:59;;;;;;;1.30;1.20;;;20.20;38.80;;;;;;5084868;28;43493;-64
2022/03/05 00:17:27;;;;;;;1.33;1.25;;;20.20;38.80;;;;;;5081787;28;43553;-63
2022/03/05 00:19:54;;;;;;;1.30;1.20;;;20.20;38.70;;;;;;5065923;28;43927;-63
2022/03/05 00:22:22;;;;;;;1.50;1.40;;;20.10;38.80;;;;;;5082319;28;43661;-63
2022/03/05 00:24:50;;;;;;;1.50;1.40;;;20.10;38.80;;;;;;5082239;28;43460;-63
2022/03/05 00:27:17;;;;;;;1.10;1.10;;;20.10;38.80;;;;;;5084238;27;43505;-64
2022/03/05 00:29:45;;;;;;;1.35;1.27;;;20.10;38.80;;;;;;5084748;28;44084;-63
2022/03/05 00:32:12;;;;;;;1.52;1.42;;;20.10;38.80;;;;;;5080261;28;43561;-63
2022/03/05 00:34:40;;;;;;;1.48;1.38;;;20.10;38.90;;;;;;5083927;27;43423;-64
2022/03/05 00:37:10;;;;;;;1.10;1.10;;;20.00;38.70;;;;;;5084059;28;43534;-63
2022/03/05 00:39:38;;;;;;;1.40;1.30;;;20.00;38.80;;;;;;5077612;28;44908;-64
2022/03/05 00:42:06;;;;;;;1.30;1.20;;;20.00;38.80;;;;;;5084167;28;43503;-63
2022/03/05 00:44:34;;;;;;;1.30;1.20;;;20.00;38.90;;;;;;5079793;28;43641;-63
2022/03/05 00:47:02;;;;;;;1.70;1.40;;;20.00;38.90;;;;;;5081732;27;43860;-64
2022/03/05 00:49:29;;;;;;;1.40;1.30;;;20.00;38.90;;;;;;5084448;27;43627;-64
2022/03/05 00:51:57;;;;;;;1.33;1.23;;;19.90;38.80;;;;;;5084087;27;43999;-64
2022/03/05 00:54:26;;;;;;;1.30;1.20;;;19.90;38.80;;;;;;5079705;28;43461;-64
2022/03/05 00:56:53;;;;;;;1.20;1.20;;;19.90;38.80;;;;;;5076723;28;43514;-64
2022/03/05 00:59:21;;;;;;;1.30;1.20;;;19.90;38.90;;;;;;5081529;28;43868;-63
2022/03/05 01:01:49;;;;;;;1.75;1.23;;;19.90;38.80;;;;;;5082719;28;43822;-63
2022/03/05 01:04:16;;;;;;;1.38;1.30;;;19.90;38.90;;;;;;5083318;27;43415;-64
2022/03/05 01:06:44;;;;;;;1.55;1.45;;;19.90;38.90;;;;;;5081218;28;43565;-64
2022/03/05 01:09:12;;;;;;;1.40;1.30;;;19.90;38.90;;;;;;5082943;28;44197;-64
2022/03/05 01:11:39;;;;;;;1.20;1.20;;;19.80;38.80;;;;;;5083993;27;43419;-64
2022/03/05 01:14:10;;;;;;;1.40;1.30;;;19.80;38.90;;;;;;5083327;27;43498;-64
2022/03/05 01:16:37;;;;;;;1.38;1.30;;;19.80;38.90;;;;;;5075296;28;43474;-64
2022/03/05 01:19:05;;;;;;;1.23;1.20;;;19.80;38.90;;;;;;5083433;27;44924;-64
2022/03/05 01:21:33;;;;;;;1.20;1.20;;;19.80;38.90;;;;;;5081315;27;43485;-64
2022/03/05 01:24:00;;;;;;;1.50;1.40;;;19.70;39.00;;;;;;5064831;28;43440;-63
2022/03/05 01:26:29;;;;;;;1.50;1.40;;;19.70;39.00;;;;;;5083887;28;43541;-64
2022/03/05 01:28:57;;;;;;;1.23;1.23;;;19.70;38.90;;;;;;5073734;28;43960;-63
2022/03/05 01:31:24;;;;;;;1.55;1.45;;;19.70;39.00;;;;;;5082129;27;43467;-63
2022/03/05 01:33:52;;;;;;;1.33;1.23;;;19.70;38.90;;;;;;5099221;27;43396;-64
2022/03/05 01:36:20;;;;;;;1.50;1.40;;;19.60;38.90;;;;;;5082210;28;43609;-64
2022/03/05 01:38:47;;;;;;;1.42;1.33;;;19.60;39.00;;;;;;5083629;27;44052;-63
2022/03/05 01:41:14;;;;;;;1.52;1.42;;;19.60;38.90;;;;;;5083519;27;43568;-64
2022/03/05 01:43:47;;;;;;;1.40;1.30;;;19.60;38.90;;;;;;5083178;27;43466;-63
2022/03/05 01:46:26;;;;;;;1.58;1.48;;;19.60;39.00;;;;;;5081981;28;43636;-64
2022/03/05 01:48:53;;;;;;;1.40;1.30;;;19.60;38.90;;;;;;5083572;27;46372;-64
2022/03/05 01:51:20;;;;;;;1.50;1.40;;;19.60;38.90;;;;;;5083466;27;43423;-64
2022/03/05 01:53:48;;;;;;;1.33;1.23;;;19.60;39.00;;;;;;5083319;27;43533;-64
2022/03/05 01:56:17;;;;;;;1.27;1.23;;;19.50;39.00;;;;;;5098124;27;43545;-64
2022/03/05 01:58:45;;;;;;;1.92;1.40;;;19.50;38.90;;;;;;5083518;27;43733;-64
2022/03/05 02:01:13;;;;;;;1.48;1.38;;;19.50;38.90;;;;;;5082323;28;43493;-63
2022/03/05 02:03:42;;;;;;;1.88;1.48;;;19.50;38.90;;;;;;5083314;27;43424;-64
2022/03/05 02:06:10;;;;;;;1.60;1.50;;;19.50;39.00;;;;;;5077699;28;43529;-64
2022/03/05 02:08:38;;;;;;;1.60;1.50;;;19.50;39.00;;;;;;5077116;28;44951;-64
2022/03/05 02:11:06;;;;;;;1.70;1.60;;;19.50;38.90;;;;;;5079500;28;43536;-64
2022/03/05 02:13:33;;;;;;;1.70;1.60;;;19.40;38.90;;;;;;5082859;27;43480;-64
2022/03/05 02:16:01;;;;;;;1.42;1.33;;;19.40;38.90;;;;;;5082990;27;44004;-64
2022/03/05 02:18:29;;;;;;;1.50;1.40;;;19.40;38.90;;;;;;5081641;28;43946;-64
2022/03/05 02:20:56;;;;;;;1.63;1.52;;;19.40;38.90;;;;;;5083088;28;43509;-64
2022/03/05 02:23:24;;;;;;;1.60;1.50;;;19.40;38.90;;;;;;5082992;27;44133;-64
2022/03/05 02:26:02;;;;;;;1.50;1.40;;;19.40;38.90;;;;;;5082696;27;43988;-64
2022/03/05 02:28:32;;;;;;;1.27;1.27;;;19.40;38.90;;;;;;5083141;28;44304;-64
2022/03/05 02:31:00;;;;;;;1.50;1.40;;;19.30;38.80;;;;;;5096326;27;43472;-64
2022/03/05 02:33:28;;;;;;;1.50;1.40;;;19.30;38.80;;;;;;5097495;27;43487;-64
2022/03/05 02:35:55;;;;;;;2.05;1.70;;;19.30;38.80;;;;;;5081371;28;43724;-64
2022/03/05 02:38:24;;;;;;;1.70;1.60;;;19.30;38.80;;;;;;5081515;28;44149;-64
2022/03/05 02:40:52;;;;;;;1.70;1.60;;;19.30;38.80;;;;;;5079235;27;43588;-64
2022/03/05 02:43:23;;;;;;;1.60;1.50;;;19.30;38.80;;;;;;5082785;28;43513;-64
2022/03/05 02:45:51;;;;;;;1.63;1.52;;;19.30;38.80;;;;;;5085126;28;43652;-64
2022/03/05 02:48:20;;;;;;;1.63;1.40;;;19.30;38.80;;;;;;5084980;28;44102;-64
2022/03/05 02:50:50;;;;;;;1.77;1.67;;;19.20;38.80;;;;;;5082754;28;44945;-64
2022/03/05 02:53:18;;;;;;;1.40;1.30;;;19.20;38.80;;;;;;5085853;28;43465;-64
2022/03/05 02:55:46;;;;;;;1.50;1.40;;;19.20;38.80;;;;;;5084085;28;43562;-63
2022/03/05 02:58:14;;;;;;;1.80;1.70;;;19.20;38.80;;;;;;5080620;28;43622;-64
2022/03/05 03:00:41;;;;;;;1.38;1.27;;;19.20;38.80;;;;;;5085984;28;43620;-64
2022/03/05 03:03:09;;;;;;;1.50;1.40;;;19.10;38.80;;;;;;5079480;27;43534;-64
2022/03/05 03:05:37;;;;;;;1.20;1.15;;;19.10;38.70;;;;;;5085418;27;43515;-63
2022/03/05 03:08:05;;;;;;;1.83;1.70;;;19.10;38.90;;;;;;5085576;27;43804;-64
2022/03/05 03:10:32;;;;;;;1.38;1.27;;;19.10;38.90;;;;;;5085777;28;43478;-64
2022/03/05 03:13:00;;;;;;;1.55;1.45;;;19.10;38.70;;;;;;5085720;27;43529;-64
2022/03/05 03:15:28;;;;;;;1.70;1.60;;;19.10;38.70;;;;;;5084105;28;43553;-64
2022/03/05 03:17:55;;;;;;;1.52;1.42;;;19.10;38.70;;;;;;5084670;27;44750;-63
2022/03/05 03:20:25;;;;;;;1.67;1.58;;;19.10;38.70;;;;;;5085639;27;43486;-63
2022/03/05 03:22:53;;;;;;;1.50;1.40;;;19.10;38.70;;;;;;5084441;28;43532;-63
2022/03/05 03:25:22;;;;;;;1.70;1.60;;;19.10;38.70;;;;;;5085494;27;43526;-64
2022/03/05 03:27:50;;;;;;;1.52;1.42;;;19.10;38.70;;;;;;5086530;28;44756;-64
2022/03/05 03:30:18;;;;;;;1.50;1.40;;;19.00;38.70;;;;;;5081211;28;44105;-64
2022/03/05 03:32:47;;;;;;;1.60;1.50;;;19.10;38.70;;;;;;5086064;28;43453;-63
2022/03/05 03:35:16;;;;;;;1.58;1.48;;;19.00;38.70;;;;;;5085203;27;43535;-63
2022/03/05 03:37:45;;;;;;;1.50;1.40;;;19.00;38.70;;;;;;5083895;28;44026;-63
2022/03/05 03:40:14;;;;;;;1.48;1.38;;;19.00;38.70;;;;;;5085239;27;43468;-63
2022/03/05 03:42:43;;;;;;;1.20;1.10;;;19.00;38.70;;;;;;5085255;28;43414;-64
2022/03/05 03:45:12;;;;;;;1.35;1.23;;;19.00;38.70;;;;;;5074682;28;43621;-63
2022/03/05 03:47:42;;;;;;;1.20;1.10;;;19.00;38.70;;;;;;5084941;28;44027;-63
2022/03/05 03:50:12;;;;;;;1.77;1.67;;;18.90;38.60;;;;;;5085440;27;43465;-64
2022/03/05 03:52:41;;;;;;;1.50;1.40;;;18.90;38.70;;;;;;5084768;27;43522;-64
2022/03/05 03:55:11;;;;;;;1.55;1.45;;;18.90;38.60;;;;;;5082773;28;43474;-63
2022/03/05 03:57:40;;;;;;;1.58;1.48;;;18.90;38.60;;;;;;5084746;28;43762;-64
2022/03/05 04:00:12;;;;;;;1.40;1.30;;;18.90;38.90;;;;;;5084487;28;43485;-63
2022/03/05 04:02:40;;;;;;;1.60;1.50;;;18.90;38.70;;;;;;5083365;28;44481;-63
2022/03/05 04:05:09;;;;;;;1.48;1.38;;;18.90;38.70;;;;;;5085074;27;43553;-63
2022/03/05 04:10:22;;;;;;;1.33;1.20;;;18.90;38.80;;;;;;5084765;27;43490;-64
2022/03/05 04:12:50;;;;;;;1.63;1.52;;;18.90;38.90;;;;;;5082374;28;43502;-63
2022/03/05 04:15:17;;;;;;;1.33;1.23;;;18.80;38.90;;;;;;5081431;28;43502;-63
2022/03/05 04:17:45;;;;;;;1.50;1.40;;;18.80;38.90;;;;;;5084421;27;44116;-63
2022/03/05 04:20:13;;;;;;;1.40;1.30;;;18.80;39.00;;;;;;5083306;28;43493;-63
2022/03/05 04:22:40;;;;;;;1.58;1.48;;;18.80;39.00;;;;;;5084682;28;43471;-63
2022/03/05 04:25:09;;;;;;;1.70;1.60;;;18.80;39.00;;;;;;5084145;27;43470;-63
2022/03/05 04:27:36;;;;;;;1.42;1.38;;;18.80;39.00;;;;;;5081882;27;44027;-63
2022/03/05 04:30:06;;;;;;;1.40;1.40;;;18.80;39.00;;;;;;5084560;28;43520;-63
2022/03/05 04:32:34;;;;;;;1.65;1.55;;;18.70;38.90;;;;;;5066590;28;43492;-63
2022/03/05 04:35:02;;;;;;;1.65;1.55;;;18.70;39.00;;;;;;5080875;28;43629;-64
2022/03/05 04:37:30;;;;;;;1.55;1.45;;;18.70;39.00;;;;;;5083702;28;44185;-63
2022/03/05 04:39:58;;;;;;;1.52;1.42;;;18.70;39.60;;;;;;5073726;28;43517;-63
2022/03/05 04:42:26;;;;;;;1.48;1.38;;;18.70;39.50;;;;;;5077255;28;43455;-63
2022/03/05 04:44:53;;;;;;;1.85;1.75;;;18.60;39.00;;;;;;5084116;28;43482;-63
2022/03/05 04:47:21;;;;;;;1.50;1.40;;;18.60;39.00;;;;;;5083964;27;44316;-63
2022/03/05 04:49:49;;;;;;;1.45;1.35;;;18.60;39.00;;;;;;5081951;27;43439;-63
2022/03/05 04:52:16;;;;;;;1.38;1.38;;;18.60;39.00;;;;;;5083147;28;43438;-63
2022/03/05 04:54:44;;;;;;;1.50;1.40;;;18.60;39.10;;;;;;5082003;28;43506;-63
2022/03/05 04:57:11;;;;;;;1.33;1.27;;;18.60;39.00;;;;;;5081187;28;44067;-63
2022/03/05 04:59:39;;;;;;;1.50;1.40;;;18.60;39.10;;;;;;5084431;27;43462;-63
2022/03/05 05:02:06;;;;;;;1.30;1.20;;;18.60;39.10;;;;;;5083451;28;43450;-64
2022/03/05 05:04:34;;;;;;;2.20;1.70;;;18.60;39.00;;;;;;5083577;27;43620;-64
2022/03/05 05:07:02;;;;;;;1.60;1.50;;;18.60;39.10;;;;;;5082369;28;43642;-63
2022/03/05 05:09:30;;;;;;;1.33;1.23;;;18.60;39.00;;;;;;5082886;28;43493;-63
2022/03/05 05:11:58;;;;;;;1.55;1.45;;;18.60;39.00;;;;;;5083907;27;43390;-63
2022/03/05 05:14:27;;;;;;;1.58;1.40;;;18.50;39.00;;;;;;5064681;28;44320;-63
2022/03/05 05:16:54;;;;;;;2.05;1.50;;;18.50;39.00;;;;;;5082576;28;47063;-63
2022/03/05 05:19:24;;;;;;;1.67;1.58;;;18.50;39.00;;;;;;5083487;28;43444;-63
2022/03/05 05:22:01;;;;;;;1.40;1.30;;;18.50;39.10;;;;;;5083896;27;43515;-63
2022/03/05 05:24:31;;;;;;;1.50;1.40;;;18.50;39.10;;;;;;5082564;27;43470;-63
2022/03/05 05:27:00;;;;;;;1.70;1.60;;;18.50;39.10;;;;;;5080204;27;43576;-63
2022/03/05 05:29:27;;;;;;;1.38;1.30;;;18.50;39.20;;;;;;5083437;28;43427;-63
2022/03/05 05:32:10;;;;;;;1.50;1.40;;;18.50;39.10;;;;;;5079053;28;43441;-64
2022/03/05 05:34:39;;;;;;;1.10;1.10;;;18.40;39.10;;;;;;5065319;28;43451;-64
2022/03/05 05:37:14;;;;;;;1.38;1.27;;;18.40;39.10;;;;;;5078986;28;43978;-63
2022/03/05 05:39:42;;;;;;;1.17;1.17;;;18.40;39.10;;;;;;5083257;27;43676;-63
2022/03/05 05:42:09;;;;;;;1.50;1.40;;;18.40;39.10;;;;;;5083332;28;43462;-63
2022/03/05 05:44:37;;;;;;;1.60;1.50;;;18.40;39.20;;;;;;5080690;28;43563;-63
2022/03/05 05:47:06;;;;;;;1.38;1.27;;;18.40;39.10;;;;;;5082149;28;43786;-63
2022/03/05 05:49:34;;;;;;;1.70;1.60;;;18.40;39.20;;;;;;5081279;28;44746;-63
2022/03/05 05:52:03;;;;;;;1.70;1.60;;;18.40;39.10;;;;;;5082144;28;43533;-63
2022/03/05 05:54:31;;;;;;;1.70;1.60;;;18.30;39.10;;;;;;5082975;28;43647;-64
2022/03/05 05:56:59;;;;;;;1.67;1.58;;;18.40;39.10;;;;;;5082160;28;43942;-63
2022/03/05 05:59:26;;;;;;;1.30;1.20;;;18.40;39.10;;;;;;5080773;28;43470;-62
2022/03/05 06:01:54;;;;;;;2.10;1.38;;;18.30;39.10;;;;;;5082622;27;43486;-63
2022/03/05 06:04:21;;;;;;;2.50;1.40;;;18.30;39.30;;;;;;5083277;27;43472;-63
2022/03/05 06:06:49;;;;;;;1.40;1.30;;;18.30;39.70;;;;;;5082755;27;43910;-63
2022/03/05 06:09:16;;;;;;;1.40;1.30;;;18.30;39.30;;;;;;5079918;28;43513;-63
2022/03/05 06:11:44;;;;;;;2.38;1.65;;;18.20;39.30;;;;;;5083277;28;43493;-63
2022/03/05 06:14:11;;;;;;;1.85;1.40;;;18.20;39.40;;;;;;5080705;28;43532;-64
2022/03/05 06:16:39;;;;;;;1.60;1.50;;;18.20;39.40;;;;;;5080671;27;43825;-64
2022/03/05 06:19:08;;;;;;;1.83;1.42;;;18.20;39.40;;;;;;5086036;27;43574;-63
2022/03/05 06:21:36;;;;;;;1.67;1.58;;;18.20;39.40;;;;;;5086939;27;43396;-63
2022/03/05 06:24:04;;;;;;;1.52;1.42;;;18.10;39.40;;;;;;5086476;28;43621;-63
2022/03/05 06:26:31;;;;;;;1.67;1.58;;;18.20;39.40;;;;;;5085951;28;44044;-63
2022/03/05 06:28:59;;;;;;;1.60;1.50;;;18.20;39.40;;;;;;5083964;27;44260;-64
2022/03/05 06:31:27;;;;;;;1.83;1.73;;;18.10;39.40;;;;;;5083813;28;43456;-62
2022/03/05 06:33:54;;;;;;;1.52;1.40;;;18.10;39.40;;;;;;5058280;28;43501;-63
2022/03/05 06:36:22;;;;;;;1.40;1.30;;;18.10;39.50;;;;;;5086063;27;43924;-63
2022/03/05 06:38:49;;;;;;;2.15;1.35;;;18.10;39.50;;;;;;5085095;27;43466;-64
2022/03/05 06:41:17;;;;;;;1.70;1.60;;;18.10;39.50;;;;;;5085368;28;43401;-63
2022/03/05 06:43:44;;;;;;;1.50;1.40;;;18.00;39.60;;;;;;5085657;27;43510;-63
2022/03/05 06:46:11;;;;;;;1.45;1.35;;;18.00;39.60;;;;;;5082920;27;44960;-61
2022/03/05 06:48:39;;;;;;;1.65;1.55;;;18.00;39.60;;;;;;5084664;27;43700;-62
2022/03/05 06:51:07;;;;;;;1.60;1.50;;;18.00;39.60;;;;;;5084535;28;43454;-64
2022/03/05 06:53:35;;;;;;;1.67;1.58;;;18.00;39.60;;;;;;5084812;27;43603;-63
2022/03/05 06:56:02;;;;;;;1.52;1.35;;;18.00;39.60;;;;;;5085414;27;43806;-64
2022/03/05 06:58:30;;;;;;;1.60;1.50;;;18.00;39.50;;;;;;5086335;28;43688;-63
2022/03/05 07:00:57;;;;;;;1.65;1.55;;;18.10;39.50;;;;;;5086259;28;43438;-63
2022/03/05 07:03:25;;;;;;;1.73;1.63;;;18.10;39.50;;;;;;5085001;28;43449;-65
2022/03/05 07:05:54;;;;;;;1.42;1.33;;;18.10;39.60;;;;;;5084266;28;43932;-64
2022/03/05 07:08:21;;;;;;;1.40;1.30;;;18.00;39.60;;;;;;5085466;27;43967;-64
2022/03/05 07:10:49;;;;;;;1.60;1.50;;;18.00;39.60;;;;;;5085974;28;43714;-64
2022/03/05 07:13:16;;;;;;;1.60;1.50;;;18.10;39.70;;;;;;5084458;27;43504;-64
2022/03/05 07:15:44;;;;;;;1.58;1.48;;;18.10;39.60;;;;;;5084115;28;45487;-64
2022/03/05 07:18:12;;;;;;;1.70;1.60;;;18.10;39.70;;;;;;5079515;28;43515;-64
2022/03/05 07:20:39;;;;;;;1.63;1.52;;;18.10;39.70;;;;;;5080089;28;43468;-64
2022/03/05 07:23:06;;;;;;;1.80;1.70;;;18.10;39.70;;;;;;5084636;28;43513;-64
2022/03/05 07:25:39;;;;;;;1.83;1.73;;;18.10;39.80;;;;;;5084259;28;45683;-64
2022/03/05 07:28:08;;;;;;;1.40;1.30;;;18.10;39.70;;;;;;5084066;27;43459;-64
2022/03/05 07:30:37;;;;;;;1.65;1.50;;;18.10;39.80;;;;;;5083933;28;43478;-64
2022/03/05 07:33:09;;;;;;;1.67;1.58;;;18.10;39.90;;;;;;5085989;27;43522;-64
2022/03/05 07:35:36;;;;;;;1.63;1.52;;;18.10;39.90;;;;;;5083423;28;44202;-64
2022/03/05 07:38:04;;;;;;;1.58;1.48;;;18.10;39.90;;;;;;5080920;28;44140;-63
2022/03/05 07:40:32;;;;;;;1.58;1.48;;;18.10;39.90;;;;;;5085666;27;43473;-63
2022/03/05 07:42:59;;;;;;;1.63;1.45;;;18.10;39.90;;;;;;5082668;28;44015;-63
2022/03/05 07:45:27;;;;;;;1.45;1.35;;;18.10;39.80;;;;;;5085044;27;43849;-64
2022/03/05 07:47:54;;;;;;;1.60;1.50;;;18.20;39.90;;;;;;5084181;28;43988;-64
2022/03/05 07:50:22;;;;;;;1.65;1.55;;;18.20;39.80;;;;;;5074507;28;43516;-63
2022/03/05 07:52:49;;;;;;;1.60;1.50;;;18.20;39.80;;;;;;5085445;28;43553;-63
2022/03/05 07:55:17;;;;;;;1.80;1.50;;;18.20;39.80;;;;;;5084629;27;43829;-62
2022/03/05 07:57:44;;;;;;;2.00;1.80;;;18.20;40.30;;;;;;5084540;27;44105;-61
2022/03/05 08:00:12;;;;;;;1.60;1.50;;;18.20;39.90;;;;;;5075295;28;44106;-62
2022/03/05 08:02:49;;;;;;;1.67;1.55;;;18.30;39.80;;;;;;5083978;28;43592;-61
2022/03/05 08:05:17;;;;;;;1.63;1.52;;;18.30;39.80;;;;;;5084231;27;43786;-62
2022/03/05 08:07:45;;;;;;;1.60;1.40;;;18.30;39.70;;;;;;5082025;28;45160;-61
2022/03/05 08:10:12;;;;;;;1.33;1.25;;;18.30;39.70;;;;;;5084540;27;43465;-62
2022/03/05 08:12:40;;;;;;;1.60;1.50;;;18.40;39.60;;;;;;5083695;27;43599;-62
2022/03/05 08:15:08;;;;;;;1.77;1.60;;;18.40;39.60;;;;;;5084216;27;43981;-61
2022/03/05 08:17:36;;;;;;;1.50;1.40;;;18.40;39.70;;;;;;5084244;27;43968;-62
2022/03/05 08:20:04;;;;;;;1.63;1.52;;;18.40;39.60;;;;;;5084154;27;43565;-62
2022/03/05 08:22:32;;;;;;;1.23;1.23;;;18.50;39.60;;;;;;5084416;27;43619;-62
2022/03/05 08:24:59;;;;;;;1.70;1.60;;;18.50;39.60;;;;;;5081586;28;43785;-62
2022/03/05 08:27:32;;;;;;;2.03;1.40;;;18.50;39.70;;;;;;5082291;28;43929;-61
2022/03/05 08:30:00;;;;;;;2.42;1.70;;;18.50;39.70;;;;;;5084351;27;43438;-62
2022/03/05 08:32:27;;;;;;;2.15;1.73;;;18.50;39.70;;;;;;5084208;27;44125;-62
2022/03/05 08:34:55;;;;;;;2.08;1.65;;;18.60;39.70;;;;;;5083839;28;44015;-62
2022/03/05 08:37:23;;;;;;;2.60;1.60;;;18.60;39.70;;;;;;5082157;27;43552;-62
2022/03/05 08:39:50;;;;;;;1.50;1.40;;;18.60;39.70;;;;;;5076865;27;43522;-62
2022/03/05 08:42:18;;;;;;;1.50;1.40;;;18.60;39.60;;;;;;5083518;27;43474;-62
2022/03/05 08:44:45;;;;;;;1.50;1.40;;;18.70;39.70;;;;;;5082131;28;43773;-62
2022/03/05 08:47:13;;;;;;;1.70;1.42;;;18.70;39.60;;;;;;5083485;27;43694;-62
2022/03/05 08:49:40;;;;;;;1.58;1.48;;;18.70;39.60;;;;;;5082698;28;43461;-62
2022/03/05 08:52:08;;;;;;;1.55;1.45;;;18.70;39.60;;;;;;5082666;28;43637;-62
2022/03/05 08:54:36;;;;;;;2.42;1.67;;;18.70;39.60;;;;;;5083377;27;44084;-62
2022/03/05 08:57:05;;;;;;;1.83;1.65;;;18.80;39.70;;;;;;5081868;28;43980;-62
2022/03/05 08:59:33;;;;;;;1.50;1.40;;;18.80;39.60;;;;;;5099978;27;43545;-61
2022/03/05 09:02:01;;;;;;;3.25;1.60;;;18.80;39.60;;;;;;5083776;27;43608;-62
2022/03/05 09:04:29;;;;;;;1.52;1.42;;;18.90;39.70;;;;;;5083055;27;43951;-63
2022/03/05 09:06:56;;;;;;;1.70;1.60;;;18.90;39.60;;;;;;5083296;27;43558;-63
2022/03/05 09:09:24;;;;;;;1.23;1.13;;;18.90;39.60;;;;;;5084169;27;43473;-63
2022/03/05 09:11:51;;;;;;;1.60;1.50;;;19.00;39.60;;;;;;5083940;27;43507;-63
2022/03/05 09:14:19;;;;;;;1.73;1.63;;;19.00;39.70;;;;;;5082949;28;43822;-63
2022/03/05 09:16:46;;;;;;;1.73;1.55;;;19.00;39.70;;;;;;5083334;28;43525;-63
2022/03/05 09:19:14;;;;;;;1.50;1.40;;;19.00;39.70;;;;;;5083284;28;43472;-63
2022/03/05 09:21:41;;;;;;;1.60;1.50;;;19.10;39.80;;;;;;5083598;27;44033;-63
2022/03/05 09:24:09;;;;;;;2.47;1.60;;;19.00;39.80;;;;;;5079821;27;44167;-62
2022/03/05 09:26:37;;;;;;;2.03;1.67;;;19.10;39.90;;;;;;5083034;28;43529;-63
2022/03/05 09:29:04;;;;;;;2.15;1.60;;;19.00;39.80;;;;;;5082409;28;43528;-63
2022/03/05 09:31:32;;;;;;;1.67;1.58;;;19.00;39.80;;;;;;5079412;28;43459;-63
2022/03/05 09:34:00;;;;;;;1.65;1.55;;;19.10;39.80;;;;;;5083005;27;44971;-62
2022/03/05 09:36:27;;;;;;;2.00;1.90;;;19.10;39.80;;;;;;5088379;27;43553;-63
2022/03/05 09:38:55;;;;;;;2.00;1.40;;;19.10;39.80;;;;;;5083168;27;43532;-62
2022/03/05 09:41:22;;;;;;;1.48;1.38;;;19.10;39.80;;;;;;5083056;27;43634;-62
2022/03/05 09:43:50;;;;;;;1.70;1.60;;;19.10;39.80;;;;;;5082426;27;43820;-62
2022/03/05 09:46:19;;;;;;;1.70;1.60;;;19.20;39.90;;;;;;5082222;27;43577;-62
2022/03/05 09:48:48;;;;;;;1.48;1.38;;;19.20;39.90;;;;;;5083235;27;43459;-62
2022/03/05 09:51:15;;;;;;;3.28;1.60;;;19.20;39.80;;;;;;5082209;27;43509;-62
2022/03/05 09:53:44;;;;;;;2.13;1.80;;;19.30;40.00;;;;;;5080491;28;44188;-62
2022/03/05 09:56:11;;;;;;;2.45;1.60;;;19.30;39.90;;;;;;5082555;27;43706;-62
2022/03/05 09:58:48;;;;;;;3.15;1.50;;;19.30;39.90;;;;;;5083441;27;43516;-62
2022/03/05 10:01:17;;;;;;;1.95;1.60;;;19.40;39.80;;;;;;5081453;28;43573;-62
2022/03/05 10:03:49;;;;;;;1.70;1.60;;;19.40;39.80;;;;;;5082427;27;43806;-61
2022/03/05 10:06:27;;;;;;;1.95;1.70;;;19.40;39.90;;;;;;5082085;28;43542;-63
2022/03/05 10:08:56;;;;;;;1.60;1.50;;;19.40;39.80;;;;;;5081593;28;43451;-62
2022/03/05 10:11:36;;;;;;;2.20;1.77;;;19.50;39.80;;;;;;5082644;27;43616;-62
2022/03/05 10:14:17;;;;;;;3.20;1.40;;;19.50;39.80;;;;;;5080839;28;44168;-62
2022/03/05 10:16:45;;;;;;;2.03;1.55;;;19.50;39.80;;;;;;5082467;27;43969;-63
2022/03/05 10:19:17;;;;;;;1.92;1.70;;;19.50;39.60;;;;;;5082378;28;43569;-62
2022/03/05 10:22:03;;;;;;;2.35;1.70;;;19.60;39.70;;;;;;5083354;27;43467;-62
2022/03/05 10:24:37;;;;;;;1.70;1.55;;;19.60;39.60;;;;;;5077292;28;43619;-62
2022/03/05 10:27:08;;;;;;;2.22;1.85;;;19.60;39.60;;;;;;5082349;28;43461;-61
2022/03/05 10:29:39;;;;;;;1.70;1.60;;;19.50;39.70;;;;;;5081666;28;43608;-62
2022/03/05 10:32:15;;;;;;;2.88;1.75;;;19.60;39.70;;;;;;5082271;27;43522;-62
2022/03/05 10:34:45;;;;;;;3.85;2.17;;;19.60;39.60;;;;;;5080873;28;44154;-61
2022/03/05 10:37:13;;;;;;;2.83;1.70;;;19.60;39.60;;;;;;5082346;28;43476;-62
2022/03/05 10:39:40;;;;;;;5.55;1.80;;;19.70;39.50;;;;;;5082499;28;43429;-62
2022/03/05 10:42:22;;;;;;;2.70;1.80;;;19.70;39.40;;;;;;5082458;27;43592;-62
2022/03/05 10:45:08;;;;;;;2.92;1.73;;;19.70;39.30;;;;;;5096943;27;44021;-62
2022/03/05 10:47:38;;;;;;;2.15;1.63;;;19.70;39.30;;;;;;5080706;28;44368;-65
2022/03/05 10:50:19;;;;;;;3.72;1.80;;;19.70;39.40;;;;;;5079082;28;43837;-64
2022/03/05 10:52:52;;;;;;;5.43;1.98;;;19.80;40.10;;;;;;5063901;28;43549;-64
2022/03/05 10:55:22;;;;;;;3.45;1.77;;;19.80;39.10;;;;;;5063834;28;43761;-64
2022/03/05 10:58:14;;;;;;;1.98;1.75;;;19.90;39.80;;;;;;5078875;27;43409;-64
2022/03/05 11:00:42;;;;;;;2.90;1.90;;;20.00;39.20;;;;;;5079243;28;43422;-64
2022/03/05 11:03:09;;;;;;;3.25;1.92;;;20.10;39.00;;;;;;5083228;27;43579;-62
2022/03/05 11:05:39;;;;;;;4.38;1.85;;;20.10;38.80;;;;;;5085210;27;44713;-63
2022/03/05 11:08:07;;;;;;;1.83;1.63;;;20.20;38.90;;;;;;5085316;27;43428;-63
2022/03/05 11:10:35;;;;;;;3.17;1.80;;;20.20;38.90;;;;;;5084577;28;43476;-63
2022/03/05 11:13:05;;;;;;;2.90;2.00;;;20.30;38.80;;;;;;5085146;27;43514;-63
2022/03/05 11:15:33;;;;;;;1.67;1.58;;;20.40;38.80;;;;;;5084975;27;43948;-62
2022/03/05 11:18:02;;;;;;;2.40;1.80;;;20.40;38.70;;;;;;5083468;28;43502;-62
2022/03/05 11:20:30;;;;;;;1.92;1.60;;;20.40;38.70;;;;;;5083783;28;43363;-63
2022/03/05 11:23:00;;;;;;;1.45;1.35;;;20.40;38.70;;;;;;5085699;28;43513;-64
2022/03/05 11:25:28;;;;;;;2.67;1.83;;;20.50;38.60;;;;;;5084612;28;44074;-63
2022/03/05 11:28:04;;;;;;;1.75;1.60;;;20.60;38.60;;;;;;5083187;28;43407;-62
2022/03/05 11:30:45;;;;;;;1.98;1.80;;;20.60;38.50;;;;;;5082175;28;43493;-63
2022/03/05 11:33:22;;;;;;;3.85;1.80;;;20.60;38.40;;;;;;5082019;28;43680;-64
2022/03/05 11:35:49;;;;;;;2.85;1.90;;;20.70;38.50;;;;;;5065544;28;44344;-65
2022/03/05 11:38:38;;;;;;;2.10;1.90;;;20.70;38.60;;;;;;5081282;27;43496;-64
2022/03/05 11:41:22;;;;;;;2.05;1.67;;;20.80;38.60;;;;;;5083656;28;43546;-64
2022/03/05 11:43:50;;;;;;;3.95;1.98;;;20.80;38.40;;;;;;5081652;27;43389;-65
2022/03/05 11:46:24;;;;;;;2.63;2.00;;;20.80;38.20;;;;;;5061398;28;45132;-65
2022/03/05 11:49:05;;;;;;;2.17;1.67;;;20.90;38.20;;;;;;5083637;28;43506;-64
2022/03/05 11:51:34;;;;;;;3.13;1.83;;;21.00;38.30;;;;;;5083744;28;43518;-64
2022/03/05 11:54:15;;;;;;;2.00;1.83;;;21.00;38.10;;;;;;5083369;28;43595;-63
2022/03/05 11:57:14;;;;;;;3.17;1.80;;;21.00;37.90;;;;;;5079932;28;45736;-64
2022/03/05 11:59:50;;;;;;;2.13;1.80;;;21.10;38.00;;;;;;5083749;28;45340;-63
2022/03/05 12:02:43;;;;;;;1.88;1.77;;;21.10;38.00;;;;;;5081994;27;43428;-65
2022/03/05 12:05:44;;;;;;;2.22;1.95;;;21.20;37.90;;;;;;5083286;28;43483;-65
2022/03/05 12:08:13;;;;;;;1.80;1.70;;;21.20;37.90;;;;;;5079111;28;45331;-65
2022/03/05 12:11:11;;;;;;;1.80;1.70;;;21.20;37.90;;;;;;5102594;27;43461;-65
2022/03/05 12:13:50;;;;;;;2.75;1.98;;;21.30;37.80;;;;;;5081715;27;43509;-64
2022/03/05 12:16:27;;;;;;;2.10;1.90;;;21.30;37.90;;;;;;5079212;27;43590;-64
2022/03/05 12:18:58;;;;;;;1.98;1.73;;;21.40;37.90;;;;;;5079408;27;43576;-65
2022/03/05 12:21:34;;;;;;;2.30;1.95;;;21.40;37.90;;;;;;5080597;27;43524;-64
2022/03/05 12:24:08;;;;;;;2.25;1.90;;;21.50;37.90;;;;;;5075239;27;43505;-65
2022/03/05 12:26:49;;;;;;;2.35;1.88;;;21.50;37.90;;;;;;5074546;27;43603;-64
2022/03/05 12:29:17;;;;;;;2.30;2.10;;;21.50;37.80;;;;;;5085111;27;44965;-64
2022/03/05 12:31:45;;;;;;;2.47;2.22;;;21.60;37.80;;;;;;5080981;27;43720;-64
2022/03/05 12:34:13;;;;;;;2.20;1.98;;;21.60;37.70;;;;;;5102193;27;44049;-64
2022/03/05 12:36:45;;;;;;;2.13;1.83;;;21.60;37.80;;;;;;5074457;27;43460;-65
2022/03/05 12:39:14;;;;;;;2.20;2.05;;;21.60;37.70;;;;;;5079306;27;43947;-64
2022/03/05 12:41:48;;;;;;;2.35;2.03;;;21.60;37.70;;;;;;5082551;27;43492;-64
2022/03/05 12:44:15;;;;;;;2.20;2.00;;;21.70;37.80;;;;;;5075836;27;43485;-64
2022/03/05 12:46:43;;;;;;;2.35;1.83;;;21.80;38.00;;;;;;5077147;27;43515;-65
2022/03/05 12:49:11;;;;;;;2.30;2.10;;;21.80;37.90;;;;;;5076760;27;43944;-65
2022/03/05 12:51:39;;;;;;;2.30;2.10;;;21.80;37.80;;;;;;5075005;27;43576;-64
2022/03/05 12:54:06;;;;;;;2.20;2.00;;;21.90;37.80;;;;;;5077771;27;43451;-65
2022/03/05 12:56:35;;;;;;;2.78;1.80;;;21.90;37.80;;;;;;5072700;27;43671;-65
2022/03/05 12:59:04;;;;;;;2.30;2.10;;;21.90;37.70;;;;;;5085999;27;43792;-64
2022/03/05 13:01:32;;;;;;;2.00;1.90;;;22.00;37.70;;;;;;5081866;27;43482;-64